createdAt,value
2022-09-17T00:02:14.456Z,92.60
2022-09-17T00:04:43.577Z,92.30
2022-09-17T00:07:11.319Z,92.80
2022-09-17T00:09:39.182Z,91.90
2022-09-17T00:12:07.229Z,92.00
2022-09-17T00:14:35.008Z,91.50
2022-09-17T00:17:02.759Z,91.40
2022-09-17T00:19:30.553Z,91.00
2022-09-17T00:21:59.828Z,91.10
2022-09-17T00:24:27.663Z,91.40
2022-09-17T00:26:55.402Z,91.80
2022-09-17T00:29:23.159Z,92.80
2022-09-17T00:31:50.995Z,93.70
2022-09-17T00:34:18.865Z,94.30
2022-09-17T00:36:46.691Z,94.50
2022-09-17T00:39:16.277Z,94.60
2022-09-17T00:41:44.778Z,95.80
2022-09-17T00:44:46.058Z,95.60
2022-09-17T00:47:27.950Z,94.90
2022-09-17T00:50:00.352Z,94.70
2022-09-17T00:52:31.832Z,94.20
2022-09-17T00:55:06.661Z,94.10
2022-09-17T00:57:34.804Z,93.70
2022-09-17T01:00:03.122Z,93.20
2022-09-17T01:02:30.942Z,92.60
2022-09-17T01:04:58.741Z,92.30
2022-09-17T01:07:40.062Z,92.80
2022-09-17T01:10:23.515Z,92.60
2022-09-17T01:13:04.789Z,92.20
2022-09-17T01:15:37.002Z,92.10
2022-09-17T01:18:22.484Z,92.00
2022-09-17T01:21:30.351Z,91.40
2022-09-17T01:24:18.883Z,91.80
2022-09-17T01:27:20.614Z,92.30
2022-09-17T01:30:02.646Z,91.80
2022-09-17T01:32:37.782Z,92.30
2022-09-17T01:35:12.234Z,92.30
2022-09-17T01:37:47.265Z,92.80
2022-09-17T01:40:24.805Z,93.00
2022-09-17T01:42:59.919Z,93.40
2022-09-17T01:45:32.404Z,93.40
2022-09-17T01:48:06.356Z,93.60
2022-09-17T01:50:43.618Z,94.00
2022-09-17T01:53:12.991Z,93.70
2022-09-17T01:55:44.791Z,93.50
2022-09-17T01:58:17.157Z,93.20
2022-09-17T02:00:51.434Z,92.50
2022-09-17T02:03:26.358Z,92.30
2022-09-17T02:05:58.558Z,92.00
2022-09-17T02:08:30.845Z,92.00
2022-09-17T02:11:03.397Z,92.50
2022-09-17T02:13:36.006Z,92.80
2022-09-17T02:16:08.463Z,92.90
2022-09-17T02:18:41.641Z,93.00
2022-09-17T02:21:15.531Z,92.80
2022-09-17T02:23:52.021Z,92.90
2022-09-17T02:26:21.671Z,93.00
2022-09-17T02:28:52.473Z,92.90
2022-09-17T02:31:20.363Z,93.40
2022-09-17T02:33:52.178Z,93.50
2022-09-17T02:36:20.694Z,93.10
2022-09-17T02:38:48.551Z,92.90
2022-09-17T02:41:19.483Z,93.50
2022-09-17T02:43:58.667Z,93.10
2022-09-17T02:46:44.219Z,92.80
2022-09-17T02:49:33.649Z,91.90
2022-09-17T02:52:07.923Z,91.40
2022-09-17T02:54:42.896Z,91.60
2022-09-17T02:57:21.577Z,91.80
2022-09-17T02:59:57.844Z,91.20
2022-09-17T03:02:28.999Z,90.90
2022-09-17T03:04:58.850Z,90.80
2022-09-17T03:07:29.085Z,90.00
2022-09-17T03:09:56.827Z,90.50
2022-09-17T03:12:26.850Z,90.70
2022-09-17T03:14:54.609Z,90.30
2022-09-17T03:17:22.420Z,90.70
2022-09-17T03:19:50.190Z,90.50
2022-09-17T03:22:19.328Z,90.30
2022-09-17T03:24:47.245Z,89.80
2022-09-17T03:27:15.067Z,90.80
2022-09-17T03:29:42.850Z,91.90
2022-09-17T03:32:12.052Z,92.70
2022-09-17T03:34:39.814Z,93.10
2022-09-17T03:37:07.668Z,94.30
2022-09-17T03:39:37.199Z,94.90
2022-09-17T03:42:05.369Z,95.20
2022-09-17T03:44:33.117Z,95.60
2022-09-17T03:47:01.019Z,96.70
2022-09-17T03:49:28.826Z,97.10
2022-09-17T03:51:56.722Z,98.10
2022-09-17T03:54:24.477Z,98.70
2022-09-17T03:56:53.598Z,98.50
2022-09-17T03:59:21.362Z,99.00
2022-09-17T04:01:49.213Z,97.10
2022-09-17T04:04:17.026Z,96.60
2022-09-17T04:06:44.773Z,97.10
2022-09-17T04:09:12.510Z,97.20
2022-09-17T04:11:40.244Z,97.90
2022-09-17T04:14:09.439Z,97.20
2022-09-17T04:16:37.267Z,98.40
2022-09-17T04:19:05.030Z,98.80
2022-09-17T04:21:32.783Z,98.90
2022-09-17T04:24:00.849Z,99.20
2022-09-17T04:26:29.203Z,99.70
2022-09-17T04:28:57.111Z,99.90
2022-09-17T04:31:27.072Z,99.90
2022-09-17T04:33:55.063Z,99.90
2022-09-17T04:36:22.853Z,99.90
2022-09-17T04:38:50.893Z,99.90
2022-09-17T04:41:19.002Z,99.90
2022-09-17T04:43:46.887Z,99.90
2022-09-17T04:46:16.670Z,99.90
2022-09-17T04:48:45.830Z,99.90
2022-09-17T04:51:13.618Z,99.90
2022-09-17T04:53:41.377Z,99.90
2022-09-17T04:56:09.122Z,99.90
2022-09-17T04:58:36.987Z,99.90
2022-09-17T05:01:04.872Z,99.90
2022-09-17T05:03:32.670Z,99.90
2022-09-17T05:06:01.981Z,99.90
2022-09-17T05:08:29.759Z,99.90
2022-09-17T05:10:57.608Z,99.90
2022-09-17T05:13:25.404Z,99.50
2022-09-17T05:15:54.833Z,99.90
2022-09-17T05:18:22.675Z,99.90
2022-09-17T05:20:50.521Z,99.60
2022-09-17T05:23:20.140Z,99.70
2022-09-17T05:25:47.872Z,99.90
2022-09-17T05:28:15.658Z,99.40
2022-09-17T05:30:43.754Z,99.90
2022-09-17T05:33:11.513Z,99.30
2022-09-17T05:35:39.269Z,99.70
2022-09-17T05:38:08.490Z,98.80
2022-09-17T05:40:38.640Z,99.80
2022-09-17T05:43:07.849Z,99.90
2022-09-17T05:45:36.234Z,99.90
2022-09-17T05:48:06.103Z,99.60
2022-09-17T05:50:34.205Z,98.80
2022-09-17T05:53:05.593Z,98.10
2022-09-17T05:55:34.891Z,98.00
2022-09-17T05:58:10.121Z,97.70
2022-09-17T06:00:38.062Z,96.50
2022-09-17T06:03:05.935Z,96.70
2022-09-17T06:05:33.805Z,97.20
2022-09-17T06:08:01.558Z,96.30
2022-09-17T06:10:29.335Z,95.10
2022-09-17T06:12:57.633Z,94.40
2022-09-17T06:15:27.982Z,94.40
2022-09-17T06:17:55.793Z,93.80
2022-09-17T06:20:23.866Z,94.60
2022-09-17T06:22:57.473Z,93.20
2022-09-17T06:25:26.359Z,91.90
2022-09-17T06:27:54.092Z,93.00
2022-09-17T06:30:21.845Z,93.90
2022-09-17T06:32:51.745Z,92.70
2022-09-17T06:35:20.439Z,90.90
2022-09-17T06:37:48.881Z,91.00
2022-09-17T06:40:17.647Z,90.90
2022-09-17T06:42:45.480Z,90.90
2022-09-17T06:45:16.526Z,90.00
2022-09-17T06:47:44.858Z,89.30
2022-09-17T06:50:14.031Z,85.90
2022-09-17T06:52:49.070Z,79.90
2022-09-17T06:55:17.142Z,81.00
2022-09-17T06:57:45.229Z,82.40
2022-09-17T07:00:14.406Z,82.20
2022-09-17T07:02:42.394Z,83.30
2022-09-17T07:05:10.729Z,82.70
2022-09-17T07:07:39.932Z,82.80
2022-09-17T07:10:08.961Z,80.90
2022-09-17T07:12:41.506Z,81.00
2022-09-17T07:15:11.248Z,80.50
2022-09-17T07:17:40.561Z,78.40
2022-09-17T07:20:09.606Z,78.60
2022-09-17T07:22:38.979Z,78.70
2022-09-17T07:25:07.606Z,79.30
2022-09-17T07:27:35.341Z,79.10
2022-09-17T07:30:03.163Z,79.30
2022-09-17T07:32:31.899Z,79.40
2022-09-17T07:34:59.657Z,78.60
2022-09-17T07:37:27.558Z,79.40
2022-09-17T07:39:56.753Z,79.10
2022-09-17T07:42:24.710Z,79.80
2022-09-17T07:44:52.510Z,77.50
2022-09-17T07:47:20.598Z,77.00
2022-09-17T07:49:48.346Z,79.80
2022-09-17T07:52:16.149Z,78.20
2022-09-17T07:54:43.917Z,77.90
2022-09-17T07:57:13.004Z,78.10
2022-09-17T07:59:40.759Z,79.20
2022-09-17T08:02:13.451Z,78.20
2022-09-17T08:04:43.540Z,77.20
2022-09-17T08:07:12.850Z,78.30
2022-09-17T08:09:40.726Z,79.60
2022-09-17T08:12:09.372Z,80.10
2022-09-17T08:14:38.784Z,81.30
2022-09-17T08:17:09.006Z,82.10
2022-09-17T08:19:36.836Z,81.80
2022-09-17T08:22:04.656Z,82.70
2022-09-17T08:24:32.444Z,82.50
2022-09-17T08:27:00.210Z,83.50
2022-09-17T08:29:30.100Z,83.60
2022-09-17T08:32:02.452Z,83.80
2022-09-17T08:34:30.209Z,84.60
2022-09-17T08:36:57.975Z,83.80
2022-09-17T08:39:25.837Z,83.00
2022-09-17T08:41:59.307Z,82.60
2022-09-17T08:44:32.815Z,82.70
2022-09-17T08:47:06.322Z,85.00
2022-09-17T08:49:37.103Z,87.00
2022-09-17T08:52:22.695Z,89.10
2022-09-17T08:55:00.344Z,88.50
2022-09-17T08:57:35.212Z,88.90
2022-09-17T09:00:07.549Z,88.50
2022-09-17T09:02:49.231Z,91.00
2022-09-17T09:05:19.369Z,89.90
2022-09-17T09:07:51.582Z,90.40
2022-09-17T09:10:23.365Z,89.40
2022-09-17T09:12:54.062Z,89.90
2022-09-17T09:15:34.953Z,86.60
2022-09-17T09:18:13.965Z,86.10
2022-09-17T09:20:51.521Z,85.00
2022-09-17T09:23:21.697Z,83.00
2022-09-17T09:25:56.134Z,82.90
2022-09-17T09:29:03.368Z,80.70
2022-09-17T09:31:45.540Z,83.20
2022-09-17T09:34:15.938Z,80.00
2022-09-17T09:36:44.210Z,80.80
2022-09-17T09:39:18.874Z,80.20
2022-09-17T09:41:50.412Z,76.90
2022-09-17T09:44:18.897Z,76.60
2022-09-17T09:47:02.361Z,78.50
2022-09-17T09:49:54.676Z,72.40
2022-09-17T09:52:38.401Z,72.50
2022-09-17T09:55:29.240Z,72.70
2022-09-17T09:58:09.858Z,73.80
2022-09-17T10:00:39.848Z,75.60
2022-09-17T10:03:14.087Z,74.50
2022-09-17T10:05:55.048Z,75.40
2022-09-17T10:08:22.815Z,75.40
2022-09-17T10:10:59.579Z,76.10
2022-09-17T10:13:28.471Z,77.20
2022-09-17T10:15:56.482Z,75.00
2022-09-17T10:18:25.787Z,74.30
2022-09-17T10:20:58.428Z,74.40
2022-09-17T10:23:28.621Z,72.40
2022-09-17T10:25:57.344Z,74.40
2022-09-17T10:28:41.432Z,71.30
2022-09-17T10:31:11.138Z,71.30
2022-09-17T10:33:51.260Z,69.90
2022-09-17T10:36:38.291Z,68.00
2022-09-17T10:39:34.044Z,68.00
2022-09-17T10:42:03.502Z,66.40
2022-09-17T10:44:33.449Z,68.40
2022-09-17T10:47:07.294Z,69.60
2022-09-17T10:49:42.165Z,69.10
2022-09-17T10:52:15.468Z,70.00
2022-09-17T10:55:07.640Z,69.90
2022-09-17T10:57:55.111Z,70.30
2022-09-17T11:00:24.563Z,71.90
2022-09-17T11:03:24.302Z,72.50
2022-09-17T11:06:33.959Z,67.90
2022-09-17T11:09:15.499Z,67.60
2022-09-17T11:11:56.401Z,65.20
2022-09-17T11:14:47.822Z,66.80
2022-09-17T11:17:36.172Z,68.20
2022-09-17T11:20:08.116Z,66.50
2022-09-17T11:22:50.142Z,68.90
2022-09-17T11:25:39.660Z,66.50
2022-09-17T11:28:19.739Z,66.70
2022-09-17T11:30:57.136Z,64.10
2022-09-17T11:33:51.225Z,65.90
2022-09-17T11:36:23.385Z,67.00
2022-09-17T11:38:52.580Z,68.00
2022-09-17T11:41:24.480Z,67.30
2022-09-17T11:44:04.521Z,67.70
2022-09-17T11:46:39.842Z,69.90
2022-09-17T11:49:15.052Z,65.70
2022-09-17T11:51:48.853Z,66.80
2022-09-17T11:54:23.689Z,66.70
2022-09-17T11:56:57.525Z,68.30
2022-09-17T11:59:31.672Z,67.60
2022-09-17T12:02:03.242Z,66.70
2022-09-17T12:04:40.596Z,66.60
2022-09-17T12:07:18.846Z,66.80
2022-09-17T12:09:52.923Z,66.10
2022-09-17T12:12:48.335Z,66.90
2022-09-17T12:15:19.417Z,66.30
2022-09-17T12:18:03.842Z,65.50
2022-09-17T12:20:43.675Z,60.50
2022-09-17T12:23:15.703Z,61.30
2022-09-17T12:25:53.646Z,62.40
2022-09-17T12:28:29.543Z,63.00
2022-09-17T12:33:38.520Z,61.50
2022-09-17T12:36:20.757Z,62.00
2022-09-17T12:39:11.738Z,63.20
2022-09-17T12:41:49.166Z,64.00
2022-09-17T12:44:36.504Z,63.70
2022-09-17T12:47:16.944Z,63.70
2022-09-17T12:49:58.460Z,65.10
2022-09-17T12:52:37.060Z,62.90
2022-09-17T12:55:24.700Z,63.70
2022-09-17T12:58:02.651Z,64.40
2022-09-17T13:00:38.355Z,63.10
2022-09-17T13:03:13.285Z,64.70
2022-09-17T13:06:04.391Z,63.30
2022-09-17T13:09:04.681Z,60.80
2022-09-17T13:11:59.021Z,61.30
2022-09-17T13:14:34.170Z,62.00
2022-09-17T13:17:07.663Z,60.50
2022-09-17T13:19:44.170Z,61.80
2022-09-17T13:22:18.612Z,61.80
2022-09-17T13:24:48.909Z,63.70
2022-09-17T13:27:25.557Z,62.40
2022-09-17T13:30:00.644Z,62.80
2022-09-17T13:35:52.976Z,62.60
2022-09-17T13:38:23.964Z,62.00
2022-09-17T13:40:52.930Z,62.80
2022-09-17T13:43:26.321Z,63.70
2022-09-17T13:46:15.115Z,64.00
2022-09-17T13:48:52.895Z,65.20
2022-09-17T13:51:54.008Z,65.60
2022-09-17T13:54:24.478Z,68.60
2022-09-17T13:57:09.135Z,74.20
2022-09-17T13:59:38.225Z,72.00
2022-09-17T14:02:38.465Z,73.40
2022-09-17T14:05:37.014Z,74.80
2022-09-17T14:08:30.876Z,76.90
2022-09-17T14:11:01.987Z,79.20
2022-09-17T14:13:45.893Z,80.50
2022-09-17T14:16:48.361Z,79.10
2022-09-17T14:19:26.017Z,78.60
2022-09-17T14:22:00.697Z,75.30
2022-09-17T14:24:36.122Z,80.40
2022-09-17T14:27:34.998Z,80.60
2022-09-17T14:30:08.590Z,78.20
2022-09-17T14:32:42.815Z,78.20
2022-09-17T14:35:23.901Z,80.40
2022-09-17T14:37:58.821Z,78.70
2022-09-17T14:40:29.119Z,80.20
2022-09-17T14:42:59.060Z,79.20
2022-09-17T14:45:32.078Z,78.40
2022-09-17T14:48:19.737Z,76.80
2022-09-17T14:50:47.672Z,76.80
2022-09-17T14:53:18.792Z,76.80
2022-09-17T14:55:49.788Z,76.50
2022-09-17T14:58:31.152Z,73.30
2022-09-17T15:00:59.276Z,74.00
2022-09-17T15:03:27.062Z,75.30
2022-09-17T15:05:55.105Z,75.90
2022-09-17T15:08:24.515Z,73.20
2022-09-17T15:10:57.371Z,72.10
2022-09-17T15:13:28.355Z,72.00
2022-09-17T15:16:07.426Z,70.20
2022-09-17T15:18:39.065Z,70.60
2022-09-17T15:21:17.668Z,70.90
2022-09-17T15:23:50.200Z,70.20
2022-09-17T15:26:27.468Z,71.00
2022-09-17T15:28:57.383Z,72.00
2022-09-17T15:31:25.591Z,71.90
2022-09-17T15:33:53.450Z,72.10
2022-09-17T15:36:23.021Z,73.40
2022-09-17T15:38:51.849Z,74.10
2022-09-17T15:41:30.882Z,74.60
2022-09-17T15:44:31.652Z,74.80
2022-09-17T15:47:33.204Z,74.60
2022-09-17T15:50:15.523Z,74.60
2022-09-17T15:52:43.516Z,75.80
2022-09-17T15:55:30.895Z,75.10
2022-09-17T15:58:01.268Z,75.60
2022-09-17T16:00:29.245Z,77.40
2022-09-17T16:02:57.209Z,78.90
2022-09-17T16:05:51.768Z,77.90
2022-09-17T16:08:33.872Z,79.80
2022-09-17T16:11:01.593Z,83.40
2022-09-17T16:13:30.734Z,86.30
2022-09-17T16:15:58.605Z,85.10
2022-09-17T16:18:27.600Z,85.20
2022-09-17T16:20:55.395Z,83.30
2022-09-17T16:23:23.271Z,84.20
2022-09-17T16:25:51.453Z,84.30
2022-09-17T16:28:20.687Z,82.20
2022-09-17T16:30:50.768Z,83.30
2022-09-17T16:33:19.662Z,83.70
2022-09-17T16:35:47.492Z,82.70
2022-09-17T16:38:15.348Z,83.30
2022-09-17T16:40:44.902Z,82.70
2022-09-17T16:43:12.698Z,84.00
2022-09-17T16:45:40.556Z,82.60
2022-09-17T16:48:10.177Z,83.60
2022-09-17T16:50:42.018Z,83.40
2022-09-17T16:53:09.805Z,84.70
2022-09-17T16:55:37.590Z,84.10
2022-09-17T16:58:05.390Z,86.00
2022-09-17T17:00:33.193Z,85.50
2022-09-17T17:03:01.111Z,86.00
2022-09-17T17:05:30.962Z,85.90
2022-09-17T17:08:00.425Z,86.90
2022-09-17T17:10:31.087Z,87.10
2022-09-17T17:12:58.869Z,85.60
2022-09-17T17:15:27.083Z,86.50
2022-09-17T17:17:54.954Z,86.30
2022-09-17T17:20:22.778Z,87.20
2022-09-17T17:22:52.320Z,86.00
2022-09-17T17:25:20.403Z,87.10
2022-09-17T17:27:48.170Z,88.10
2022-09-17T17:30:17.193Z,89.00
2022-09-17T17:32:49.819Z,89.90
2022-09-17T17:35:18.081Z,89.60
2022-09-17T17:37:47.150Z,89.60
2022-09-17T17:40:16.513Z,89.50
2022-09-17T17:42:47.275Z,90.60
2022-09-17T17:45:15.768Z,90.70
2022-09-17T17:47:43.536Z,91.00
2022-09-17T17:50:11.507Z,92.00
2022-09-17T17:52:40.240Z,92.80
2022-09-17T17:55:08.956Z,95.20
2022-09-17T17:57:38.350Z,98.20
2022-09-17T18:00:07.274Z,99.90
2022-09-17T18:02:35.115Z,99.90
2022-09-17T18:05:04.506Z,99.90
2022-09-17T18:07:32.573Z,99.90
2022-09-17T18:10:00.382Z,99.90
2022-09-17T18:12:28.344Z,99.90
2022-09-17T18:14:57.450Z,99.90
2022-09-17T18:17:25.226Z,99.90
2022-09-17T18:19:55.177Z,99.90
2022-09-17T18:22:22.992Z,99.90
2022-09-17T18:24:50.727Z,99.90
2022-09-17T18:27:18.491Z,99.90
2022-09-17T18:29:46.228Z,99.90
2022-09-17T18:32:15.296Z,99.90
2022-09-17T18:34:43.044Z,99.90
2022-09-17T18:37:10.869Z,99.90
2022-09-17T18:39:57.883Z,99.90
2022-09-17T18:42:26.377Z,99.90
2022-09-17T18:44:54.236Z,99.90
2022-09-17T18:47:23.653Z,99.90
2022-09-17T18:49:51.466Z,99.90
2022-09-17T18:52:19.241Z,99.90
2022-09-17T18:54:47.035Z,99.90
2022-09-17T18:57:14.855Z,99.90
2022-09-17T18:59:42.681Z,99.90
2022-09-17T19:02:12.685Z,99.90
2022-09-17T19:04:41.959Z,99.90
2022-09-17T19:07:09.736Z,99.90
2022-09-17T19:09:37.498Z,99.90
2022-09-17T19:12:05.441Z,99.90
2022-09-17T19:14:33.793Z,99.70
2022-09-17T19:17:01.566Z,99.60
2022-09-17T19:19:29.341Z,99.70
2022-09-17T19:21:58.482Z,99.40
2022-09-17T19:24:26.269Z,99.30
2022-09-17T19:26:54.472Z,99.80
2022-09-17T19:29:22.190Z,99.00
2022-09-17T19:31:50.006Z,98.50
2022-09-17T19:34:17.778Z,98.30
2022-09-17T19:36:45.501Z,99.20
2022-09-17T19:39:14.623Z,99.50
2022-09-17T19:41:42.352Z,99.90
2022-09-17T19:44:10.123Z,99.60
2022-09-17T19:46:37.935Z,99.90
2022-09-17T19:49:05.920Z,99.90
2022-09-17T19:51:33.919Z,99.90
2022-09-17T19:54:01.677Z,99.90
2022-09-17T19:56:30.750Z,99.90
2022-09-17T19:59:01.396Z,99.90
2022-09-17T20:01:29.294Z,99.90
2022-09-17T20:03:57.068Z,99.90
2022-09-17T20:06:24.826Z,99.90
2022-09-17T20:08:54.570Z,99.90
2022-09-17T20:11:23.944Z,99.90
2022-09-17T20:13:57.862Z,99.90
2022-09-17T20:16:26.537Z,99.90
2022-09-17T20:18:54.826Z,99.90
2022-09-17T20:21:24.832Z,99.90
2022-09-17T20:23:52.860Z,98.20
2022-09-17T20:26:20.850Z,97.60
2022-09-17T20:28:50.470Z,97.50
2022-09-17T20:31:21.456Z,98.00
2022-09-17T20:33:52.104Z,98.40
2022-09-17T20:36:21.866Z,98.20
2022-09-17T20:41:39.095Z,98.10
2022-09-17T20:44:08.257Z,97.90
2022-09-17T20:46:37.373Z,98.20
2022-09-17T20:49:05.372Z,98.70
2022-09-17T20:51:33.818Z,97.50
2022-09-17T20:54:02.460Z,97.80
2022-09-17T20:56:32.961Z,98.10
2022-09-17T20:59:08.236Z,98.10
2022-09-17T21:01:38.202Z,97.80
2022-09-17T21:04:08.058Z,98.10
2022-09-17T21:06:37.412Z,98.40
2022-09-17T21:09:06.612Z,98.60
2022-09-17T21:11:35.648Z,99.30
2022-09-17T21:14:03.414Z,99.30
2022-09-17T21:16:31.723Z,99.90
2022-09-17T21:19:02.621Z,99.90
2022-09-17T21:21:34.139Z,99.90
2022-09-17T21:24:03.232Z,99.90
2022-09-17T21:26:31.856Z,99.90
2022-09-17T21:28:59.886Z,99.90
2022-09-17T21:31:32.351Z,99.90
2022-09-17T21:34:04.895Z,99.90
2022-09-17T21:36:34.581Z,99.90
2022-09-17T21:39:04.840Z,99.90
2022-09-17T21:41:32.797Z,99.90
2022-09-17T21:44:00.925Z,99.90
2022-09-17T21:46:30.316Z,99.90
2022-09-17T21:49:02.036Z,98.40
2022-09-17T21:51:33.921Z,98.30
2022-09-17T21:54:03.169Z,98.60
2022-09-17T21:56:31.858Z,99.30
2022-09-17T21:59:01.557Z,99.60
2022-09-17T22:01:32.537Z,99.90
2022-09-17T22:04:01.966Z,99.90
2022-09-17T22:06:32.674Z,99.90
2022-09-17T22:09:02.336Z,99.90
2022-09-17T22:11:33.582Z,99.90
2022-09-17T22:14:05.050Z,99.90
2022-09-17T22:16:35.807Z,99.90
2022-09-17T22:19:04.720Z,99.90
2022-09-17T22:21:36.135Z,99.90
2022-09-17T22:24:05.142Z,99.90
2022-09-17T22:26:34.644Z,99.90
2022-09-17T22:29:02.927Z,99.90
2022-09-17T22:31:30.865Z,99.90
2022-09-17T22:33:59.088Z,99.90
2022-09-17T22:36:29.254Z,99.90
2022-09-17T22:38:59.474Z,99.90
2022-09-17T22:41:28.893Z,99.90
2022-09-17T22:43:57.718Z,99.90
2022-09-17T22:46:27.515Z,99.90
2022-09-17T22:48:55.916Z,99.90
2022-09-17T22:51:24.125Z,99.90
2022-09-17T22:53:52.058Z,99.90
2022-09-17T22:56:23.185Z,99.90
2022-09-17T22:58:51.073Z,99.90
2022-09-17T23:01:21.751Z,99.90
2022-09-17T23:03:51.446Z,99.90
2022-09-17T23:06:21.273Z,99.90
2022-09-17T23:08:49.271Z,99.90
2022-09-17T23:11:19.696Z,99.90
2022-09-17T23:13:49.874Z,99.90
2022-09-17T23:16:18.704Z,99.90
2022-09-17T23:18:47.024Z,99.90
2022-09-17T23:21:16.438Z,99.90
2022-09-17T23:23:45.384Z,99.90
2022-09-17T23:26:15.665Z,99.90
2022-09-17T23:28:43.838Z,99.90
2022-09-17T23:31:14.782Z,99.90
2022-09-17T23:33:43.218Z,99.90
2022-09-17T23:36:13.694Z,99.90
2022-09-17T23:38:41.984Z,99.90
2022-09-17T23:41:12.568Z,99.90
2022-09-17T23:43:40.502Z,99.90
2022-09-17T23:46:08.482Z,99.90
2022-09-17T23:48:37.690Z,99.90
2022-09-17T23:51:06.018Z,99.90
2022-09-17T23:53:35.375Z,99.90
2022-09-17T23:56:04.300Z,99.90
2022-09-17T23:58:32.777Z,99.90
